Map

Track Data

SID SEASON NUMBER BASIN SUBBASIN NAME ISO_TIME NATURE LAT LON WMO_WIND WMO_PRES WMO_AGENCY TRACK_TYPE DIST2LAND LANDFALL IFLAG USA_AGENCY USA_ATCF_ID USA_LAT USA_LON USA_RECORD USA_STATUS USA_WIND USA_PRES USA_SSHS USA_R34_NE USA_R34_SE USA_R34_SW USA_R34_NW USA_R50_NE USA_R50_SE USA_R50_SW USA_R50_NW USA_R64_NE USA_R64_SE USA_R64_SW USA_R64_NW USA_POCI USA_ROCI USA_RMW USA_EYE TOKYO_LAT TOKYO_LON TOKYO_GRADE TOKYO_WIND TOKYO_PRES TOKYO_R50_DIR TOKYO_R50_LONG TOKYO_R50_SHORT TOKYO_R30_DIR TOKYO_R30_LONG TOKYO_R30_SHORT TOKYO_LAND CMA_LAT CMA_LON CMA_CAT CMA_WIND CMA_PRES HKO_LAT HKO_LON HKO_CAT HKO_WIND HKO_PRES NEWDELHI_LAT NEWDELHI_LON NEWDELHI_GRADE NEWDELHI_WIND NEWDELHI_PRES NEWDELHI_CI NEWDELHI_DP NEWDELHI_POCI REUNION_LAT REUNION_LON REUNION_TYPE REUNION_WIND REUNION_PRES REUNION_TNUM REUNION_CI REUNION_RMW REUNION_R34_NE REUNION_R34_SE REUNION_R34_SW REUNION_R34_NW REUNION_R50_NE REUNION_R50_SE REUNION_R50_SW REUNION_R50_NW REUNION_R64_NE REUNION_R64_SE REUNION_R64_SW REUNION_R64_NW BOM_LAT BOM_LON BOM_TYPE BOM_WIND BOM_PRES BOM_TNUM BOM_CI BOM_RMW BOM_R34_NE BOM_R34_SE BOM_R34_SW BOM_R34_NW BOM_R50_NE BOM_R50_SE BOM_R50_SW BOM_R50_NW BOM_R64_NE BOM_R64_SE BOM_R64_SW BOM_R64_NW BOM_ROCI BOM_POCI BOM_EYE BOM_POS_METHOD BOM_PRES_METHOD NADI_LAT NADI_LON NADI_CAT NADI_WIND NADI_PRES WELLINGTON_LAT WELLINGTON_LON WELLINGTON_WIND WELLINGTON_PRES DS824_LAT DS824_LON DS824_STAGE DS824_WIND DS824_PRES TD9636_LAT TD9636_LON TD9636_STAGE TD9636_WIND TD9636_PRES TD9635_LAT TD9635_LON TD9635_WIND TD9635_PRES TD9635_ROCI NEUMANN_LAT NEUMANN_LON NEUMANN_CLASS NEUMANN_WIND NEUMANN_PRES MLC_LAT MLC_LON MLC_CLASS MLC_WIND MLC_PRES USA_GUST BOM_GUST BOM_GUST_PER REUNION_GUST REUNION_GUST_PER USA_SEAHGT USA_SEARAD_NE USA_SEARAD_SE USA_SEARAD_SW USA_SEARAD_NW STORM_SPEED STORM_DIR
1954259N26271 1954 64 NA GM NOT_NAMED 1954-09-15 12:00:00 TS 25.5000 -89.0000 30 hurdat_atl main 390 379 O_____________ hurdat_atl AL111954 25.5000 -89.0000 TD 30 -1 9 283
1954259N26271 1954 64 NA GM NOT_NAMED 1954-09-15 15:00:00 TS 25.6104 -89.5097 main 381 373 P_____________ AL111954 25.6104 -89.5097 TD 30 -1 9 283
1954259N26271 1954 64 NA GM NOT_NAMED 1954-09-15 18:00:00 TS 25.7000 -90.0000 30 hurdat_atl main 379 369 O_____________ hurdat_atl AL111954 25.7000 -90.0000 TD 30 -1 9 280
1954259N26271 1954 64 NA GM NOT_NAMED 1954-09-15 21:00:00 TS 25.7573 -90.4576 main 368 368 P_____________ AL111954 25.7573 -90.4576 TD 32 -1 8 277
1954259N26271 1954 64 NA GM NOT_NAMED 1954-09-16 00:00:00 TS 25.8000 -90.9000 35 hurdat_atl main 368 359 O_____________ hurdat_atl AL111954 25.8000 -90.9000 TS 35 0 8 277
1954259N26271 1954 64 NA GM NOT_NAMED 1954-09-16 03:00:00 TS 25.8650 -91.3724 main 360 360 P_____________ AL111954 25.8650 -91.3724 TS 35 0 8 277
1954259N26271 1954 64 NA GM NOT_NAMED 1954-09-16 06:00:00 TS 25.9000 -91.8000 35 hurdat_atl main 368 368 O_____________ hurdat_atl AL111954 25.9000 -91.8000 TS 35 0 7 271
1954259N26271 1954 64 NA GM NOT_NAMED 1954-09-16 09:00:00 TS 25.8723 -92.1226 main 376 376 P_____________ AL111954 25.8723 -92.1226 TS 37 0 5 259
1954259N26271 1954 64 NA GM NOT_NAMED 1954-09-16 12:00:00 TS 25.8000 -92.4000 40 1004 hurdat_atl main 397 397 O_____________ hurdat_atl AL111954 25.8000 -92.4000 TS 40 1004 0 6 253
1954259N26271 1954 64 NA GM NOT_NAMED 1954-09-16 15:00:00 TS 25.7075 -92.7075 main 419 412 P_____________ AL111954 25.7075 -92.7075 TS 40 1004 0 6 250
1954259N26271 1954 64 NA GM NOT_NAMED 1954-09-16 18:00:00 TS 25.6000 -93.0000 40 1004 hurdat_atl main 412 394 O_____________ hurdat_atl AL111954 25.6000 -93.0000 TS 40 1004 0 5 247
1954259N26271 1954 64 NA GM NOT_NAMED 1954-09-16 21:00:00 TS 25.4924 -93.2575 main 384 366 P_____________ AL111954 25.4924 -93.2575 TS 40 1004 0 5 246
1954259N26271 1954 64 NA GM NOT_NAMED 1954-09-17 00:00:00 TS 25.4000 -93.5000 40 1004 hurdat_atl main 366 346 O_____________ hurdat_atl AL111954 25.4000 -93.5000 TS 40 1004 0 5 251
1954259N26271 1954 64 NA GM NOT_NAMED 1954-09-17 03:00:00 TS 25.3425 -93.7499 main 349 320 P_____________ AL111954 25.3425 -93.7499 TS 37 0 5 257
1954259N26271 1954 64 NA GM NOT_NAMED 1954-09-17 06:00:00 TS 25.3000 -94.0000 35 hurdat_atl main 320 300 O_____________ hurdat_atl AL111954 25.3000 -94.0000 TS 35 0 5 258
1954259N26271 1954 64 NA GM NOT_NAMED 1954-09-17 09:00:00 TS 25.2500 -94.2500 main 304 274 P_____________ AL111954 25.2500 -94.2500 TS 32 -1 5 258
1954259N26271 1954 64 NA GM NOT_NAMED 1954-09-17 12:00:00 TS 25.2000 -94.5000 30 hurdat_atl main 274 254 O_____________ hurdat_atl AL111954 25.2000 -94.5000 TD 30 -1 5 258
1954259N26271 1954 64 NA GM NOT_NAMED 1954-09-17 15:00:00 TS 25.1500 -94.7500 main 257 227 P_____________ AL111954 25.1500 -94.7500 TD 30 -1 5 258
1954259N26271 1954 64 NA GM NOT_NAMED 1954-09-17 18:00:00 TS 25.1000 -95.0000 30 hurdat_atl main 227 208 O_____________ hurdat_atl AL111954 25.1000 -95.0000 TD 30 -1 5 258
1954259N26271 1954 64 NA GM NOT_NAMED 1954-09-17 21:00:00 TS 25.0501 -95.2500 main 198 183 P_____________ AL111954 25.0501 -95.2500 TD 27 -1 5 258
1954259N26271 1954 64 NA GM NOT_NAMED 1954-09-18 00:00:00 TS 25.0000 -95.5000 25 hurdat_atl main 183 O_____________ hurdat_atl AL111954 25.0000 -95.5000 TD 25 -1 5 258

About IBTrACS Database

This database is a web-friendly format of International Best Track Archive for Climate Stewardship (IBTrACS), a global best track data archive curated by NOAA dating back to 1842.

Updated: 2021-11-26